sensor_id;sensor_type;location;lat;lon;timestamp;P1;durP1;ratioP1;P2;durP2;ratioP2
2107;SDS011;1060;52.492;13.388;2023-11-21T00:19:06;25.30;;;18.50;;
2107;SDS011;1060;52.492;13.388;2023-11-21T00:21:32;28.17;;;19.27;;
2107;SDS011;1060;52.492;13.388;2023-11-21T00:23:58;30.87;;;21.33;;
2107;SDS011;1060;52.492;13.388;2023-11-21T00:26:25;27.60;;;22.40;;
2107;SDS011;1060;52.492;13.388;2023-11-21T00:29:00;30.90;;;22.80;;
2107;SDS011;1060;52.492;13.388;2023-11-21T00:34:09;35.40;;;26.97;;
2107;SDS011;1060;52.492;13.388;2023-11-21T00:36:58;31.80;;;25.03;;
2107;SDS011;1060;52.492;13.388;2023-11-21T00:39:28;28.93;;;20.90;;
2107;SDS011;1060;52.492;13.388;2023-11-21T00:42:13;32.33;;;24.90;;
2107;SDS011;1060;52.492;13.388;2023-11-21T00:44:40;39.70;;;27.87;;
2107;SDS011;1060;52.492;13.388;2023-11-21T00:47:07;36.30;;;27.10;;
2107;SDS011;1060;52.492;13.388;2023-11-21T00:49:33;41.40;;;24.67;;
2107;SDS011;1060;52.492;13.388;2023-11-21T00:52:00;43.80;;;28.43;;
2107;SDS011;1060;52.492;13.388;2023-11-21T00:54:31;44.60;;;29.23;;
2107;SDS011;1060;52.492;13.388;2023-11-21T00:57:01;54.10;;;32.03;;
2107;SDS011;1060;52.492;13.388;2023-11-21T00:59:31;51.10;;;28.63;;
2107;SDS011;1060;52.492;13.388;2023-11-21T01:01:58;50.40;;;32.03;;
2107;SDS011;1060;52.492;13.388;2023-11-21T01:04:26;51.90;;;28.53;;
2107;SDS011;1060;52.492;13.388;2023-11-21T01:06:57;59.07;;;31.90;;
2107;SDS011;1060;52.492;13.388;2023-11-21T01:09:23;50.40;;;32.50;;
2107;SDS011;1060;52.492;13.388;2023-11-21T01:12:20;52.80;;;31.10;;
2107;SDS011;1060;52.492;13.388;2023-11-21T01:15:04;56.80;;;34.67;;
2107;SDS011;1060;52.492;13.388;2023-11-21T01:17:33;53.50;;;29.97;;
2107;SDS011;1060;52.492;13.388;2023-11-21T01:20:03;54.27;;;34.80;;
2107;SDS011;1060;52.492;13.388;2023-11-21T01:22:40;65.77;;;34.07;;
2107;SDS011;1060;52.492;13.388;2023-11-21T01:25:22;64.63;;;34.30;;
2107;SDS011;1060;52.492;13.388;2023-11-21T01:28:03;87.60;;;43.07;;
2107;SDS011;1060;52.492;13.388;2023-11-21T01:30:42;78.80;;;41.40;;
2107;SDS011;1060;52.492;13.388;2023-11-21T01:33:19;85.07;;;43.43;;
2107;SDS011;1060;52.492;13.388;2023-11-21T01:35:52;87.93;;;43.57;;
2107;SDS011;1060;52.492;13.388;2023-11-21T01:38:36;88.27;;;43.90;;
2107;SDS011;1060;52.492;13.388;2023-11-21T01:41:32;84.53;;;41.10;;
2107;SDS011;1060;52.492;13.388;2023-11-21T01:44:01;83.60;;;39.13;;
2107;SDS011;1060;52.492;13.388;2023-11-21T01:46:34;89.00;;;42.70;;
2107;SDS011;1060;52.492;13.388;2023-11-21T01:49:20;85.03;;;38.80;;
2107;SDS011;1060;52.492;13.388;2023-11-21T01:51:50;76.83;;;38.00;;
2107;SDS011;1060;52.492;13.388;2023-11-21T01:54:17;73.87;;;35.97;;
2107;SDS011;1060;52.492;13.388;2023-11-21T01:56:46;73.40;;;35.50;;
2107;SDS011;1060;52.492;13.388;2023-11-21T01:59:14;59.17;;;34.10;;
2107;SDS011;1060;52.492;13.388;2023-11-21T02:01:43;62.57;;;30.23;;
2107;SDS011;1060;52.492;13.388;2023-11-21T02:04:17;71.10;;;35.80;;
2107;SDS011;1060;52.492;13.388;2023-11-21T02:06:44;71.13;;;34.27;;
2107;SDS011;1060;52.492;13.388;2023-11-21T02:09:13;56.33;;;30.27;;
2107;SDS011;1060;52.492;13.388;2023-11-21T02:11:58;56.10;;;29.07;;
2107;SDS011;1060;52.492;13.388;2023-11-21T02:14:28;49.20;;;24.80;;
2107;SDS011;1060;52.492;13.388;2023-11-21T02:16:59;44.33;;;23.60;;
2107;SDS011;1060;52.492;13.388;2023-11-21T02:19:39;38.67;;;22.87;;
2107;SDS011;1060;52.492;13.388;2023-11-21T02:22:36;44.70;;;23.07;;
2107;SDS011;1060;52.492;13.388;2023-11-21T02:25:56;30.60;;;18.07;;
2107;SDS011;1060;52.492;13.388;2023-11-21T02:28:57;30.20;;;20.10;;
2107;SDS011;1060;52.492;13.388;2023-11-21T02:35:13;31.20;;;17.93;;
2107;SDS011;1060;52.492;13.388;2023-11-21T02:37:46;30.80;;;21.27;;
2107;SDS011;1060;52.492;13.388;2023-11-21T02:40:50;26.30;;;15.93;;
2107;SDS011;1060;52.492;13.388;2023-11-21T02:43:46;27.57;;;16.70;;
2107;SDS011;1060;52.492;13.388;2023-11-21T02:46:49;27.30;;;16.90;;
2107;SDS011;1060;52.492;13.388;2023-11-21T02:49:26;25.37;;;15.27;;
2107;SDS011;1060;52.492;13.388;2023-11-21T02:55:51;19.00;;;14.60;;
2107;SDS011;1060;52.492;13.388;2023-11-21T02:58:41;20.90;;;16.07;;
2107;SDS011;1060;52.492;13.388;2023-11-21T03:01:52;18.13;;;15.60;;
2107;SDS011;1060;52.492;13.388;2023-11-21T03:04:40;32.93;;;17.97;;
2107;SDS011;1060;52.492;13.388;2023-11-21T03:07:13;26.00;;;17.53;;
2107;SDS011;1060;52.492;13.388;2023-11-21T03:09:50;26.60;;;19.30;;
2107;SDS011;1060;52.492;13.388;2023-11-21T03:12:50;25.60;;;17.97;;
2107;SDS011;1060;52.492;13.388;2023-11-21T03:15:32;25.77;;;20.30;;
2107;SDS011;1060;52.492;13.388;2023-11-21T03:18:23;28.67;;;19.67;;
2107;SDS011;1060;52.492;13.388;2023-11-21T03:22:02;28.57;;;19.77;;
2107;SDS011;1060;52.492;13.388;2023-11-21T03:28:44;24.30;;;18.93;;
2107;SDS011;1060;52.492;13.388;2023-11-21T03:31:45;27.60;;;19.50;;
2107;SDS011;1060;52.492;13.388;2023-11-21T06:34:50;9.23;;;8.30;;
2107;SDS011;1060;52.492;13.388;2023-11-21T06:37:33;6.77;;;6.00;;
2107;SDS011;1060;52.492;13.388;2023-11-21T06:40:16;6.73;;;6.10;;
2107;SDS011;1060;52.492;13.388;2023-11-21T11:47:27;5.00;;;4.53;;
2107;SDS011;1060;52.492;13.388;2023-11-21T11:52:32;4.22;;;3.83;;
2107;SDS011;1060;52.492;13.388;2023-11-21T11:55:03;5.23;;;4.77;;
2107;SDS011;1060;52.492;13.388;2023-11-21T11:57:35;4.30;;;3.63;;
2107;SDS011;1060;52.492;13.388;2023-11-21T12:00:20;6.43;;;5.93;;
2107;SDS011;1060;52.492;13.388;2023-11-21T12:02:56;4.57;;;4.17;;
2107;SDS011;1060;52.492;13.388;2023-11-21T12:05:46;3.67;;;3.43;;
2107;SDS011;1060;52.492;13.388;2023-11-21T12:08:14;4.70;;;4.20;;
2107;SDS011;1060;52.492;13.388;2023-11-21T12:10:44;4.00;;;3.60;;
2107;SDS011;1060;52.492;13.388;2023-11-21T12:13:13;4.45;;;3.97;;
2107;SDS011;1060;52.492;13.388;2023-11-21T12:15:49;4.47;;;4.03;;
2107;SDS011;1060;52.492;13.388;2023-11-21T12:18:18;6.35;;;4.50;;
2107;SDS011;1060;52.492;13.388;2023-11-21T12:20:47;3.87;;;3.47;;
2107;SDS011;1060;52.492;13.388;2023-11-21T12:23:34;4.32;;;3.95;;
2107;SDS011;1060;52.492;13.388;2023-11-21T12:26:04;6.43;;;4.90;;
2107;SDS011;1060;52.492;13.388;2023-11-21T12:28:34;4.53;;;4.00;;
2107;SDS011;1060;52.492;13.388;2023-11-21T13:18:41;13.68;;;6.80;;
2107;SDS011;1060;52.492;13.388;2023-11-21T13:21:12;11.05;;;7.40;;
2107;SDS011;1060;52.492;13.388;2023-11-21T13:23:39;6.40;;;5.80;;
2107;SDS011;1060;52.492;13.388;2023-11-21T13:26:06;5.47;;;4.97;;
2107;SDS011;1060;52.492;13.388;2023-11-21T13:28:35;11.10;;;8.25;;
2107;SDS011;1060;52.492;13.388;2023-11-21T13:31:03;6.40;;;5.17;;
2107;SDS011;1060;52.492;13.388;2023-11-21T13:33:40;6.68;;;5.97;;
2107;SDS011;1060;52.492;13.388;2023-11-21T13:36:23;8.40;;;7.07;;
2107;SDS011;1060;52.492;13.388;2023-11-21T13:39:17;7.75;;;6.80;;
2107;SDS011;1060;52.492;13.388;2023-11-21T13:41:44;10.30;;;7.22;;
2107;SDS011;1060;52.492;13.388;2023-11-21T13:44:19;9.07;;;7.50;;
2107;SDS011;1060;52.492;13.388;2023-11-21T13:46:55;8.82;;;7.97;;
2107;SDS011;1060;52.492;13.388;2023-11-21T13:52:48;8.35;;;7.55;;
2107;SDS011;1060;52.492;13.388;2023-11-21T13:55:17;11.98;;;8.25;;
2107;SDS011;1060;52.492;13.388;2023-11-21T13:57:44;9.10;;;7.43;;
2107;SDS011;1060;52.492;13.388;2023-11-21T14:29:26;14.35;;;12.85;;
2107;SDS011;1060;52.492;13.388;2023-11-21T14:32:35;15.48;;;13.07;;
2107;SDS011;1060;52.492;13.388;2023-11-21T14:36:09;22.55;;;14.98;;
2107;SDS011;1060;52.492;13.388;2023-11-21T14:39:15;17.08;;;15.35;;
2107;SDS011;1060;52.492;13.388;2023-11-21T14:42:42;16.75;;;14.00;;
2107;SDS011;1060;52.492;13.388;2023-11-21T19:07:08;16.40;;;11.77;;
2107;SDS011;1060;52.492;13.388;2023-11-21T19:25:10;9.38;;;7.95;;
2107;SDS011;1060;52.492;13.388;2023-11-21T19:30:49;9.55;;;8.45;;
2107;SDS011;1060;52.492;13.388;2023-11-21T19:33:18;10.32;;;8.68;;
2107;SDS011;1060;52.492;13.388;2023-11-21T19:42:48;9.70;;;8.50;;
2107;SDS011;1060;52.492;13.388;2023-11-21T20:32:46;12.60;;;9.10;;
2107;SDS011;1060;52.492;13.388;2023-11-21T20:35:25;9.45;;;8.30;;
2107;SDS011;1060;52.492;13.388;2023-11-21T22:01:27;7.05;;;6.05;;
2107;SDS011;1060;52.492;13.388;2023-11-21T22:04:42;7.15;;;6.45;;
2107;SDS011;1060;52.492;13.388;2023-11-21T22:07:51;6.88;;;6.18;;
2107;SDS011;1060;52.492;13.388;2023-11-21T22:10:52;7.63;;;6.75;;
